sensor_id;sensor_type;location;lat;lon;timestamp;P1;durP1;ratioP1;P2;durP2;ratioP2
52708;SDS011;38606;52.986;6.980;2022-10-16T00:01:15;5.40;;;1.88;;
52708;SDS011;38606;52.986;6.980;2022-10-16T00:03:43;6.63;;;1.70;;
52708;SDS011;38606;52.986;6.980;2022-10-16T00:06:10;6.50;;;2.10;;
52708;SDS011;38606;52.986;6.980;2022-10-16T00:08:37;8.30;;;2.08;;
52708;SDS011;38606;52.986;6.980;2022-10-16T00:11:05;7.13;;;1.98;;
52708;SDS011;38606;52.986;6.980;2022-10-16T00:13:33;5.10;;;1.55;;
52708;SDS011;38606;52.986;6.980;2022-10-16T00:15:59;9.15;;;2.25;;
52708;SDS011;38606;52.986;6.980;2022-10-16T00:18:26;6.95;;;1.90;;
52708;SDS011;38606;52.986;6.980;2022-10-16T00:20:52;8.55;;;1.80;;
52708;SDS011;38606;52.986;6.980;2022-10-16T00:23:18;7.47;;;2.08;;
52708;SDS011;38606;52.986;6.980;2022-10-16T00:25:44;7.55;;;2.13;;
52708;SDS011;38606;52.986;6.980;2022-10-16T00:28:18;7.22;;;2.00;;
52708;SDS011;38606;52.986;6.980;2022-10-16T00:30:44;6.07;;;2.10;;
52708;SDS011;38606;52.986;6.980;2022-10-16T00:33:10;7.55;;;1.70;;
52708;SDS011;38606;52.986;6.980;2022-10-16T00:35:35;4.90;;;1.67;;
52708;SDS011;38606;52.986;6.980;2022-10-16T00:38:01;7.43;;;2.00;;
52708;SDS011;38606;52.986;6.980;2022-10-16T00:40:27;7.03;;;2.00;;
52708;SDS011;38606;52.986;6.980;2022-10-16T00:42:53;3.40;;;1.60;;
52708;SDS011;38606;52.986;6.980;2022-10-16T00:45:19;6.18;;;1.50;;
52708;SDS011;38606;52.986;6.980;2022-10-16T00:47:44;5.45;;;1.67;;
52708;SDS011;38606;52.986;6.980;2022-10-16T00:52:56;3.33;;;1.50;;
52708;SDS011;38606;52.986;6.980;2022-10-16T00:55:24;6.55;;;1.98;;
52708;SDS011;38606;52.986;6.980;2022-10-16T00:57:50;9.73;;;1.55;;
52708;SDS011;38606;52.986;6.980;2022-10-16T01:00:21;9.20;;;2.10;;
52708;SDS011;38606;52.986;6.980;2022-10-16T01:02:55;5.38;;;1.60;;
52708;SDS011;38606;52.986;6.980;2022-10-16T01:05:24;7.03;;;1.70;;
52708;SDS011;38606;52.986;6.980;2022-10-16T01:08:13;5.72;;;1.58;;
52708;SDS011;38606;52.986;6.980;2022-10-16T01:10:55;5.38;;;2.00;;
52708;SDS011;38606;52.986;6.980;2022-10-16T01:13:26;7.25;;;1.52;;
52708;SDS011;38606;52.986;6.980;2022-10-16T01:15:55;3.55;;;1.58;;
52708;SDS011;38606;52.986;6.980;2022-10-16T01:18:39;4.50;;;1.60;;
52708;SDS011;38606;52.986;6.980;2022-10-16T01:21:10;5.88;;;1.90;;
52708;SDS011;38606;52.986;6.980;2022-10-16T01:29:16;8.60;;;1.92;;
52708;SDS011;38606;52.986;6.980;2022-10-16T01:32:15;7.25;;;2.05;;
52708;SDS011;38606;52.986;6.980;2022-10-16T01:37:32;2.92;;;1.67;;
52708;SDS011;38606;52.986;6.980;2022-10-16T01:40:03;5.65;;;1.88;;
52708;SDS011;38606;52.986;6.980;2022-10-16T01:42:36;4.97;;;2.08;;
52708;SDS011;38606;52.986;6.980;2022-10-16T01:45:17;4.85;;;2.20;;
52708;SDS011;38606;52.986;6.980;2022-10-16T01:47:44;8.88;;;2.22;;
52708;SDS011;38606;52.986;6.980;2022-10-16T01:50:13;4.32;;;2.00;;
52708;SDS011;38606;52.986;6.980;2022-10-16T01:52:42;6.00;;;2.17;;
52708;SDS011;38606;52.986;6.980;2022-10-16T01:55:12;9.93;;;2.65;;
52708;SDS011;38606;52.986;6.980;2022-10-16T01:57:44;7.00;;;2.25;;
52708;SDS011;38606;52.986;6.980;2022-10-16T02:00:13;7.55;;;1.83;;
52708;SDS011;38606;52.986;6.980;2022-10-16T02:02:44;5.57;;;2.50;;
52708;SDS011;38606;52.986;6.980;2022-10-16T02:05:23;5.32;;;2.10;;
52708;SDS011;38606;52.986;6.980;2022-10-16T02:07:53;7.22;;;2.10;;
52708;SDS011;38606;52.986;6.980;2022-10-16T02:10:19;4.03;;;2.22;;
52708;SDS011;38606;52.986;6.980;2022-10-16T02:12:57;5.10;;;2.10;;
52708;SDS011;38606;52.986;6.980;2022-10-16T02:15:27;6.72;;;1.80;;
52708;SDS011;38606;52.986;6.980;2022-10-16T02:17:53;8.32;;;2.25;;
52708;SDS011;38606;52.986;6.980;2022-10-16T02:20:20;4.85;;;2.15;;
52708;SDS011;38606;52.986;6.980;2022-10-16T02:22:51;7.37;;;2.13;;
52708;SDS011;38606;52.986;6.980;2022-10-16T02:25:31;6.18;;;1.77;;
52708;SDS011;38606;52.986;6.980;2022-10-16T02:28:09;6.97;;;2.20;;
52708;SDS011;38606;52.986;6.980;2022-10-16T02:30:51;5.25;;;2.50;;
52708;SDS011;38606;52.986;6.980;2022-10-16T02:33:23;8.25;;;2.10;;
52708;SDS011;38606;52.986;6.980;2022-10-16T02:35:50;4.28;;;2.10;;
52708;SDS011;38606;52.986;6.980;2022-10-16T02:38:17;6.75;;;2.08;;
52708;SDS011;38606;52.986;6.980;2022-10-16T02:40:44;3.75;;;2.00;;
52708;SDS011;38606;52.986;6.980;2022-10-16T02:43:10;6.20;;;2.17;;
52708;SDS011;38606;52.986;6.980;2022-10-16T02:45:36;5.68;;;2.10;;
52708;SDS011;38606;52.986;6.980;2022-10-16T02:48:02;6.55;;;1.95;;
52708;SDS011;38606;52.986;6.980;2022-10-16T02:50:28;4.75;;;1.90;;
52708;SDS011;38606;52.986;6.980;2022-10-16T02:52:54;7.05;;;2.40;;
52708;SDS011;38606;52.986;6.980;2022-10-16T02:55:19;5.47;;;2.13;;
52708;SDS011;38606;52.986;6.980;2022-10-16T02:57:45;5.40;;;2.08;;
52708;SDS011;38606;52.986;6.980;2022-10-16T03:00:12;5.32;;;2.20;;
52708;SDS011;38606;52.986;6.980;2022-10-16T03:02:39;6.22;;;1.85;;
52708;SDS011;38606;52.986;6.980;2022-10-16T03:05:05;9.18;;;2.10;;
52708;SDS011;38606;52.986;6.980;2022-10-16T03:07:32;7.70;;;2.05;;
52708;SDS011;38606;52.986;6.980;2022-10-16T03:09:58;4.68;;;2.13;;
52708;SDS011;38606;52.986;6.980;2022-10-16T03:12:27;4.53;;;2.15;;
52708;SDS011;38606;52.986;6.980;2022-10-16T03:14:54;5.53;;;2.17;;
52708;SDS011;38606;52.986;6.980;2022-10-16T03:17:21;7.50;;;1.85;;
52708;SDS011;38606;52.986;6.980;2022-10-16T03:19:47;3.70;;;1.67;;
52708;SDS011;38606;52.986;6.980;2022-10-16T03:22:13;7.13;;;2.70;;
52708;SDS011;38606;52.986;6.980;2022-10-16T03:24:38;8.98;;;2.40;;
52708;SDS011;38606;52.986;6.980;2022-10-16T03:27:04;7.88;;;2.00;;
52708;SDS011;38606;52.986;6.980;2022-10-16T03:29:30;9.02;;;2.40;;
52708;SDS011;38606;52.986;6.980;2022-10-16T03:31:57;4.43;;;1.80;;
52708;SDS011;38606;52.986;6.980;2022-10-16T03:34:22;4.72;;;1.80;;
52708;SDS011;38606;52.986;6.980;2022-10-16T03:36:49;4.65;;;1.63;;
52708;SDS011;38606;52.986;6.980;2022-10-16T03:39:15;5.70;;;1.77;;
52708;SDS011;38606;52.986;6.980;2022-10-16T03:41:40;4.03;;;1.60;;
52708;SDS011;38606;52.986;6.980;2022-10-16T03:44:06;8.95;;;2.08;;
52708;SDS011;38606;52.986;6.980;2022-10-16T03:46:32;4.43;;;1.77;;
52708;SDS011;38606;52.986;6.980;2022-10-16T03:48:57;8.10;;;2.00;;
52708;SDS011;38606;52.986;6.980;2022-10-16T03:51:23;5.60;;;2.00;;
52708;SDS011;38606;52.986;6.980;2022-10-16T03:53:48;4.85;;;2.05;;
52708;SDS011;38606;52.986;6.980;2022-10-16T03:56:14;4.40;;;1.83;;
52708;SDS011;38606;52.986;6.980;2022-10-16T03:58:40;7.38;;;1.80;;
52708;SDS011;38606;52.986;6.980;2022-10-16T04:01:06;6.15;;;2.10;;
52708;SDS011;38606;52.986;6.980;2022-10-16T04:03:32;4.45;;;2.00;;
52708;SDS011;38606;52.986;6.980;2022-10-16T04:05:57;6.38;;;2.10;;
52708;SDS011;38606;52.986;6.980;2022-10-16T04:08:23;6.25;;;2.38;;
52708;SDS011;38606;52.986;6.980;2022-10-16T04:10:49;4.47;;;1.92;;
52708;SDS011;38606;52.986;6.980;2022-10-16T04:13:15;4.53;;;2.25;;
52708;SDS011;38606;52.986;6.980;2022-10-16T04:15:41;4.40;;;2.10;;
52708;SDS011;38606;52.986;6.980;2022-10-16T04:18:06;5.00;;;2.38;;
52708;SDS011;38606;52.986;6.980;2022-10-16T04:20:33;4.75;;;1.83;;
52708;SDS011;38606;52.986;6.980;2022-10-16T04:22:59;4.57;;;2.20;;
52708;SDS011;38606;52.986;6.980;2022-10-16T04:25:24;5.45;;;2.28;;
52708;SDS011;38606;52.986;6.980;2022-10-16T04:27:52;7.57;;;2.20;;
52708;SDS011;38606;52.986;6.980;2022-10-16T04:30:18;4.95;;;2.08;;
52708;SDS011;38606;52.986;6.980;2022-10-16T04:32:47;5.18;;;2.45;;
52708;SDS011;38606;52.986;6.980;2022-10-16T04:35:17;9.32;;;2.53;;
52708;SDS011;38606;52.986;6.980;2022-10-16T04:37:43;7.53;;;1.88;;
52708;SDS011;38606;52.986;6.980;2022-10-16T04:40:09;5.32;;;2.20;;
52708;SDS011;38606;52.986;6.980;2022-10-16T04:42:35;5.07;;;2.20;;
52708;SDS011;38606;52.986;6.980;2022-10-16T04:45:01;4.93;;;2.25;;
52708;SDS011;38606;52.986;6.980;2022-10-16T04:47:28;6.60;;;2.65;;
52708;SDS011;38606;52.986;6.980;2022-10-16T04:49:53;3.60;;;2.40;;
52708;SDS011;38606;52.986;6.980;2022-10-16T04:52:19;4.60;;;2.35;;
52708;SDS011;38606;52.986;6.980;2022-10-16T04:54:46;9.63;;;2.42;;
52708;SDS011;38606;52.986;6.980;2022-10-16T04:57:12;4.75;;;2.60;;
52708;SDS011;38606;52.986;6.980;2022-10-16T04:59:38;5.18;;;2.60;;
52708;SDS011;38606;52.986;6.980;2022-10-16T05:02:03;7.38;;;2.78;;
52708;SDS011;38606;52.986;6.980;2022-10-16T05:04:29;5.15;;;2.60;;
52708;SDS011;38606;52.986;6.980;2022-10-16T05:06:55;5.75;;;2.50;;
52708;SDS011;38606;52.986;6.980;2022-10-16T05:09:20;5.28;;;2.53;;
52708;SDS011;38606;52.986;6.980;2022-10-16T05:11:46;5.63;;;2.75;;
52708;SDS011;38606;52.986;6.980;2022-10-16T05:14:12;3.80;;;2.42;;
52708;SDS011;38606;52.986;6.980;2022-10-16T05:16:38;6.57;;;3.17;;
52708;SDS011;38606;52.986;6.980;2022-10-16T05:19:03;7.20;;;2.90;;
52708;SDS011;38606;52.986;6.980;2022-10-16T05:21:29;6.03;;;2.72;;
52708;SDS011;38606;52.986;6.980;2022-10-16T05:23:55;4.68;;;2.63;;
52708;SDS011;38606;52.986;6.980;2022-10-16T05:26:21;6.50;;;3.22;;
52708;SDS011;38606;52.986;6.980;2022-10-16T05:28:46;5.65;;;2.80;;
52708;SDS011;38606;52.986;6.980;2022-10-16T05:31:14;5.28;;;2.75;;
52708;SDS011;38606;52.986;6.980;2022-10-16T05:33:39;9.48;;;2.85;;
52708;SDS011;38606;52.986;6.980;2022-10-16T05:36:06;5.20;;;2.83;;
52708;SDS011;38606;52.986;6.980;2022-10-16T05:38:34;5.72;;;3.00;;
52708;SDS011;38606;52.986;6.980;2022-10-16T05:41:01;5.15;;;2.95;;
52708;SDS011;38606;52.986;6.980;2022-10-16T05:43:27;4.68;;;2.53;;
52708;SDS011;38606;52.986;6.980;2022-10-16T05:45:54;4.55;;;2.58;;
52708;SDS011;38606;52.986;6.980;2022-10-16T05:48:21;5.18;;;2.58;;
52708;SDS011;38606;52.986;6.980;2022-10-16T05:50:48;6.68;;;3.00;;
52708;SDS011;38606;52.986;6.980;2022-10-16T05:53:13;4.88;;;2.53;;
52708;SDS011;38606;52.986;6.980;2022-10-16T05:55:39;5.72;;;2.67;;
52708;SDS011;38606;52.986;6.980;2022-10-16T05:58:05;6.88;;;2.78;;
52708;SDS011;38606;52.986;6.980;2022-10-16T06:00:30;5.65;;;2.60;;
52708;SDS011;38606;52.986;6.980;2022-10-16T06:02:56;4.95;;;2.90;;
52708;SDS011;38606;52.986;6.980;2022-10-16T06:05:21;6.05;;;2.70;;
52708;SDS011;38606;52.986;6.980;2022-10-16T06:07:47;4.10;;;2.60;;
52708;SDS011;38606;52.986;6.980;2022-10-16T06:10:13;5.18;;;3.05;;
52708;SDS011;38606;52.986;6.980;2022-10-16T06:12:39;5.53;;;2.58;;
52708;SDS011;38606;52.986;6.980;2022-10-16T06:15:04;7.18;;;3.28;;
52708;SDS011;38606;52.986;6.980;2022-10-16T06:17:30;6.88;;;3.03;;
52708;SDS011;38606;52.986;6.980;2022-10-16T06:19:56;3.17;;;2.60;;
52708;SDS011;38606;52.986;6.980;2022-10-16T06:22:22;4.40;;;2.83;;
52708;SDS011;38606;52.986;6.980;2022-10-16T06:24:47;8.73;;;3.13;;
52708;SDS011;38606;52.986;6.980;2022-10-16T06:27:14;4.15;;;2.55;;
52708;SDS011;38606;52.986;6.980;2022-10-16T06:29:40;13.27;;;3.78;;
52708;SDS011;38606;52.986;6.980;2022-10-16T06:32:08;9.18;;;2.88;;
52708;SDS011;38606;52.986;6.980;2022-10-16T06:34:34;5.45;;;2.55;;
52708;SDS011;38606;52.986;6.980;2022-10-16T06:37:00;6.78;;;2.35;;
52708;SDS011;38606;52.986;6.980;2022-10-16T06:39:26;6.00;;;2.83;;
52708;SDS011;38606;52.986;6.980;2022-10-16T06:41:51;4.88;;;2.42;;
52708;SDS011;38606;52.986;6.980;2022-10-16T06:44:17;5.45;;;2.38;;
52708;SDS011;38606;52.986;6.980;2022-10-16T06:46:43;7.30;;;2.42;;
52708;SDS011;38606;52.986;6.980;2022-10-16T06:49:08;5.93;;;2.10;;
52708;SDS011;38606;52.986;6.980;2022-10-16T06:51:34;5.38;;;2.15;;
52708;SDS011;38606;52.986;6.980;2022-10-16T06:54:01;6.00;;;2.65;;
52708;SDS011;38606;52.986;6.980;2022-10-16T06:56:28;8.13;;;2.28;;
52708;SDS011;38606;52.986;6.980;2022-10-16T06:58:55;10.48;;;2.35;;
52708;SDS011;38606;52.986;6.980;2022-10-16T07:01:22;4.05;;;2.00;;
52708;SDS011;38606;52.986;6.980;2022-10-16T07:03:49;5.57;;;2.03;;
52708;SDS011;38606;52.986;6.980;2022-10-16T07:06:16;9.88;;;2.40;;
52708;SDS011;38606;52.986;6.980;2022-10-16T07:08:43;3.80;;;1.80;;
52708;SDS011;38606;52.986;6.980;2022-10-16T07:11:11;5.70;;;2.10;;
52708;SDS011;38606;52.986;6.980;2022-10-16T07:13:39;4.68;;;1.90;;
52708;SDS011;38606;52.986;6.980;2022-10-16T07:16:07;5.60;;;2.10;;
52708;SDS011;38606;52.986;6.980;2022-10-16T07:18:43;4.88;;;1.55;;
52708;SDS011;38606;52.986;6.980;2022-10-16T07:21:17;7.10;;;2.78;;
52708;SDS011;38606;52.986;6.980;2022-10-16T07:23:45;6.78;;;2.00;;
52708;SDS011;38606;52.986;6.980;2022-10-16T07:26:14;2.60;;;1.92;;
52708;SDS011;38606;52.986;6.980;2022-10-16T07:28:40;7.30;;;2.05;;
52708;SDS011;38606;52.986;6.980;2022-10-16T07:31:09;3.95;;;2.00;;
52708;SDS011;38606;52.986;6.980;2022-10-16T07:33:36;3.42;;;1.90;;
52708;SDS011;38606;52.986;6.980;2022-10-16T07:36:03;4.82;;;1.80;;
52708;SDS011;38606;52.986;6.980;2022-10-16T07:38:30;7.30;;;1.98;;
52708;SDS011;38606;52.986;6.980;2022-10-16T07:40:59;7.72;;;1.92;;
52708;SDS011;38606;52.986;6.980;2022-10-16T07:43:26;4.20;;;1.85;;
52708;SDS011;38606;52.986;6.980;2022-10-16T07:45:53;6.05;;;2.00;;
52708;SDS011;38606;52.986;6.980;2022-10-16T07:48:20;5.30;;;1.73;;
52708;SDS011;38606;52.986;6.980;2022-10-16T07:50:46;3.70;;;1.90;;
52708;SDS011;38606;52.986;6.980;2022-10-16T07:53:12;6.32;;;1.92;;
52708;SDS011;38606;52.986;6.980;2022-10-16T07:55:38;3.58;;;1.63;;
52708;SDS011;38606;52.986;6.980;2022-10-16T07:58:04;5.75;;;1.88;;
52708;SDS011;38606;52.986;6.980;2022-10-16T08:00:31;4.60;;;1.98;;
52708;SDS011;38606;52.986;6.980;2022-10-16T08:02:57;4.47;;;2.10;;
52708;SDS011;38606;52.986;6.980;2022-10-16T08:05:27;6.05;;;2.10;;
52708;SDS011;38606;52.986;6.980;2022-10-16T08:07:53;5.35;;;1.92;;
52708;SDS011;38606;52.986;6.980;2022-10-16T08:10:20;5.43;;;2.15;;
52708;SDS011;38606;52.986;6.980;2022-10-16T08:12:46;5.50;;;1.65;;
52708;SDS011;38606;52.986;6.980;2022-10-16T08:15:12;8.75;;;2.10;;
52708;SDS011;38606;52.986;6.980;2022-10-16T08:17:38;6.63;;;2.00;;
52708;SDS011;38606;52.986;6.980;2022-10-16T08:20:04;6.30;;;1.85;;
52708;SDS011;38606;52.986;6.980;2022-10-16T08:22:30;6.53;;;1.70;;
52708;SDS011;38606;52.986;6.980;2022-10-16T08:24:56;6.03;;;1.88;;
52708;SDS011;38606;52.986;6.980;2022-10-16T08:27:22;5.40;;;1.80;;
52708;SDS011;38606;52.986;6.980;2022-10-16T08:29:50;4.53;;;2.30;;
52708;SDS011;38606;52.986;6.980;2022-10-16T08:32:16;4.65;;;1.85;;
52708;SDS011;38606;52.986;6.980;2022-10-16T08:34:42;6.15;;;1.70;;
52708;SDS011;38606;52.986;6.980;2022-10-16T08:37:07;4.93;;;1.35;;
52708;SDS011;38606;52.986;6.980;2022-10-16T08:39:36;6.88;;;1.85;;
52708;SDS011;38606;52.986;6.980;2022-10-16T08:47:47;6.53;;;1.40;;
52708;SDS011;38606;52.986;6.980;2022-10-16T08:50:17;5.47;;;1.30;;
52708;SDS011;38606;52.986;6.980;2022-10-16T08:52:48;4.45;;;1.20;;
52708;SDS011;38606;52.986;6.980;2022-10-16T08:55:28;4.03;;;1.33;;
52708;SDS011;38606;52.986;6.980;2022-10-16T08:58:49;5.93;;;1.42;;
52708;SDS011;38606;52.986;6.980;2022-10-16T09:00:56;4.07;;;1.10;;
52708;SDS011;38606;52.986;6.980;2022-10-16T09:03:45;3.95;;;0.88;;
52708;SDS011;38606;52.986;6.980;2022-10-16T09:17:00;3.22;;;1.45;;
52708;SDS011;38606;52.986;6.980;2022-10-16T09:22:14;2.17;;;1.10;;
52708;SDS011;38606;52.986;6.980;2022-10-16T09:24:41;2.47;;;1.30;;
52708;SDS011;38606;52.986;6.980;2022-10-16T09:27:11;7.75;;;1.45;;
52708;SDS011;38606;52.986;6.980;2022-10-16T09:29:39;4.00;;;1.25;;
52708;SDS011;38606;52.986;6.980;2022-10-16T09:32:16;7.80;;;1.40;;
52708;SDS011;38606;52.986;6.980;2022-10-16T09:34:47;4.65;;;1.50;;
52708;SDS011;38606;52.986;6.980;2022-10-16T09:37:17;5.88;;;1.45;;
52708;SDS011;38606;52.986;6.980;2022-10-16T09:39:54;11.05;;;1.95;;
52708;SDS011;38606;52.986;6.980;2022-10-16T09:42:21;6.35;;;1.52;;
52708;SDS011;38606;52.986;6.980;2022-10-16T09:44:52;6.20;;;1.55;;
52708;SDS011;38606;52.986;6.980;2022-10-16T09:47:25;8.70;;;1.40;;
52708;SDS011;38606;52.986;6.980;2022-10-16T09:49:54;4.97;;;1.50;;
52708;SDS011;38606;52.986;6.980;2022-10-16T09:52:20;5.97;;;1.50;;
52708;SDS011;38606;52.986;6.980;2022-10-16T09:55:00;4.90;;;1.55;;
52708;SDS011;38606;52.986;6.980;2022-10-16T09:57:27;7.88;;;1.30;;
52708;SDS011;38606;52.986;6.980;2022-10-16T09:59:57;8.48;;;1.90;;
52708;SDS011;38606;52.986;6.980;2022-10-16T10:02:44;10.70;;;1.80;;
52708;SDS011;38606;52.986;6.980;2022-10-16T10:05:20;6.32;;;1.45;;
52708;SDS011;38606;52.986;6.980;2022-10-16T10:07:53;8.45;;;1.33;;
52708;SDS011;38606;52.986;6.980;2022-10-16T10:10:28;15.30;;;1.95;;
52708;SDS011;38606;52.986;6.980;2022-10-16T10:12:55;7.45;;;1.20;;
52708;SDS011;38606;52.986;6.980;2022-10-16T10:15:22;9.07;;;1.80;;
52708;SDS011;38606;52.986;6.980;2022-10-16T10:17:50;6.78;;;1.50;;
52708;SDS011;38606;52.986;6.980;2022-10-16T10:23:22;5.95;;;1.52;;
52708;SDS011;38606;52.986;6.980;2022-10-16T10:42:59;9.00;;;1.60;;
52708;SDS011;38606;52.986;6.980;2022-10-16T10:45:41;9.88;;;1.80;;
52708;SDS011;38606;52.986;6.980;2022-10-16T10:50:57;9.85;;;1.55;;
52708;SDS011;38606;52.986;6.980;2022-10-16T10:53:36;12.30;;;1.60;;
52708;SDS011;38606;52.986;6.980;2022-10-16T10:56:08;14.07;;;2.00;;
52708;SDS011;38606;52.986;6.980;2022-10-16T11:01:30;11.10;;;1.60;;
52708;SDS011;38606;52.986;6.980;2022-10-16T11:06:57;10.10;;;1.90;;
52708;SDS011;38606;52.986;6.980;2022-10-16T11:10:03;12.63;;;1.65;;
52708;SDS011;38606;52.986;6.980;2022-10-16T11:12:38;10.90;;;1.55;;
52708;SDS011;38606;52.986;6.980;2022-10-16T11:15:14;12.40;;;1.50;;
52708;SDS011;38606;52.986;6.980;2022-10-16T11:17:50;6.72;;;1.27;;
52708;SDS011;38606;52.986;6.980;2022-10-16T11:20:42;7.55;;;1.50;;
52708;SDS011;38606;52.986;6.980;2022-10-16T11:25:48;10.07;;;1.88;;
52708;SDS011;38606;52.986;6.980;2022-10-16T11:28:29;10.48;;;1.55;;
52708;SDS011;38606;52.986;6.980;2022-10-16T11:31:19;14.45;;;1.90;;
52708;SDS011;38606;52.986;6.980;2022-10-16T11:33:57;9.00;;;1.60;;
52708;SDS011;38606;52.986;6.980;2022-10-16T11:36:44;9.27;;;1.75;;
52708;SDS011;38606;52.986;6.980;2022-10-16T11:39:19;15.20;;;2.05;;
52708;SDS011;38606;52.986;6.980;2022-10-16T11:42:05;6.18;;;1.63;;
52708;SDS011;38606;52.986;6.980;2022-10-16T11:44:45;12.00;;;1.45;;
52708;SDS011;38606;52.986;6.980;2022-10-16T11:47:42;8.75;;;1.70;;
52708;SDS011;38606;52.986;6.980;2022-10-16T11:55:57;8.88;;;2.17;;
52708;SDS011;38606;52.986;6.980;2022-10-16T11:58:25;7.72;;;1.42;;
52708;SDS011;38606;52.986;6.980;2022-10-16T12:06:23;5.97;;;1.10;;
52708;SDS011;38606;52.986;6.980;2022-10-16T12:08:53;7.50;;;1.45;;
52708;SDS011;38606;52.986;6.980;2022-10-16T12:14:06;10.45;;;1.88;;
52708;SDS011;38606;52.986;6.980;2022-10-16T12:19:24;10.15;;;1.55;;
52708;SDS011;38606;52.986;6.980;2022-10-16T12:21:52;10.10;;;1.63;;
52708;SDS011;38606;52.986;6.980;2022-10-16T12:27:29;9.43;;;1.75;;
52708;SDS011;38606;52.986;6.980;2022-10-16T12:32:52;6.93;;;1.48;;
52708;SDS011;38606;52.986;6.980;2022-10-16T12:35:20;9.23;;;1.50;;
52708;SDS011;38606;52.986;6.980;2022-10-16T12:37:49;8.00;;;1.40;;
52708;SDS011;38606;52.986;6.980;2022-10-16T12:43:57;12.35;;;1.30;;
52708;SDS011;38606;52.986;6.980;2022-10-16T12:51:38;12.02;;;2.03;;
52708;SDS011;38606;52.986;6.980;2022-10-16T12:54:18;8.88;;;1.65;;
52708;SDS011;38606;52.986;6.980;2022-10-16T12:57:09;10.70;;;1.70;;
52708;SDS011;38606;52.986;6.980;2022-10-16T13:07:29;16.00;;;1.60;;
52708;SDS011;38606;52.986;6.980;2022-10-16T13:16:05;6.35;;;1.50;;
52708;SDS011;38606;52.986;6.980;2022-10-16T13:27:45;6.63;;;1.40;;
52708;SDS011;38606;52.986;6.980;2022-10-16T13:30:23;11.98;;;1.80;;
52708;SDS011;38606;52.986;6.980;2022-10-16T13:32:56;8.63;;;1.55;;
52708;SDS011;38606;52.986;6.980;2022-10-16T13:35:33;8.07;;;1.60;;
52708;SDS011;38606;52.986;6.980;2022-10-16T13:38:04;9.05;;;1.40;;
52708;SDS011;38606;52.986;6.980;2022-10-16T13:40:36;7.70;;;1.20;;
52708;SDS011;38606;52.986;6.980;2022-10-16T13:43:01;7.63;;;1.55;;
52708;SDS011;38606;52.986;6.980;2022-10-16T13:45:28;6.50;;;1.52;;
52708;SDS011;38606;52.986;6.980;2022-10-16T13:48:03;9.80;;;1.38;;
52708;SDS011;38606;52.986;6.980;2022-10-16T13:50:31;8.95;;;2.00;;
52708;SDS011;38606;52.986;6.980;2022-10-16T13:53:07;11.30;;;1.63;;
52708;SDS011;38606;52.986;6.980;2022-10-16T13:55:38;12.07;;;1.45;;
52708;SDS011;38606;52.986;6.980;2022-10-16T13:58:14;10.85;;;1.75;;
52708;SDS011;38606;52.986;6.980;2022-10-16T14:00:40;9.02;;;1.42;;
52708;SDS011;38606;52.986;6.980;2022-10-16T14:03:18;7.40;;;1.38;;
52708;SDS011;38606;52.986;6.980;2022-10-16T14:05:49;11.00;;;2.03;;
52708;SDS011;38606;52.986;6.980;2022-10-16T14:08:20;8.68;;;1.50;;
52708;SDS011;38606;52.986;6.980;2022-10-16T14:10:47;8.73;;;1.70;;
52708;SDS011;38606;52.986;6.980;2022-10-16T14:16:08;8.20;;;2.03;;
52708;SDS011;38606;52.986;6.980;2022-10-16T14:18:37;7.97;;;1.60;;
52708;SDS011;38606;52.986;6.980;2022-10-16T14:21:05;10.77;;;1.67;;
52708;SDS011;38606;52.986;6.980;2022-10-16T14:23:36;8.75;;;1.58;;
52708;SDS011;38606;52.986;6.980;2022-10-16T14:26:11;12.20;;;1.80;;
52708;SDS011;38606;52.986;6.980;2022-10-16T14:28:39;9.30;;;1.58;;
52708;SDS011;38606;52.986;6.980;2022-10-16T14:31:22;8.65;;;1.35;;
52708;SDS011;38606;52.986;6.980;2022-10-16T14:33:56;10.32;;;1.50;;
52708;SDS011;38606;52.986;6.980;2022-10-16T14:36:23;8.73;;;1.45;;
52708;SDS011;38606;52.986;6.980;2022-10-16T14:41:21;8.38;;;1.42;;
52708;SDS011;38606;52.986;6.980;2022-10-16T14:43:51;10.48;;;1.73;;
52708;SDS011;38606;52.986;6.980;2022-10-16T14:46:20;12.05;;;1.65;;
52708;SDS011;38606;52.986;6.980;2022-10-16T14:51:25;11.43;;;2.20;;
52708;SDS011;38606;52.986;6.980;2022-10-16T14:53:51;9.60;;;1.55;;
52708;SDS011;38606;52.986;6.980;2022-10-16T14:56:18;10.38;;;1.50;;
52708;SDS011;38606;52.986;6.980;2022-10-16T14:58:46;12.20;;;2.00;;
52708;SDS011;38606;52.986;6.980;2022-10-16T15:01:12;13.13;;;2.10;;
52708;SDS011;38606;52.986;6.980;2022-10-16T15:03:38;10.35;;;1.60;;
52708;SDS011;38606;52.986;6.980;2022-10-16T15:06:08;9.57;;;1.60;;
52708;SDS011;38606;52.986;6.980;2022-10-16T15:08:41;11.43;;;1.70;;
52708;SDS011;38606;52.986;6.980;2022-10-16T15:11:14;11.25;;;1.73;;
52708;SDS011;38606;52.986;6.980;2022-10-16T15:13:42;9.95;;;1.58;;
52708;SDS011;38606;52.986;6.980;2022-10-16T15:16:11;9.32;;;1.83;;
52708;SDS011;38606;52.986;6.980;2022-10-16T15:18:39;11.45;;;2.85;;
52708;SDS011;38606;52.986;6.980;2022-10-16T15:21:05;10.18;;;1.80;;
52708;SDS011;38606;52.986;6.980;2022-10-16T15:23:30;9.82;;;1.85;;
52708;SDS011;38606;52.986;6.980;2022-10-16T15:25:56;10.93;;;1.98;;
52708;SDS011;38606;52.986;6.980;2022-10-16T15:28:22;9.95;;;1.85;;
52708;SDS011;38606;52.986;6.980;2022-10-16T15:30:50;11.30;;;1.60;;
52708;SDS011;38606;52.986;6.980;2022-10-16T15:33:18;11.55;;;2.10;;
52708;SDS011;38606;52.986;6.980;2022-10-16T15:35:49;15.95;;;2.20;;
52708;SDS011;38606;52.986;6.980;2022-10-16T15:38:16;4.82;;;1.50;;
52708;SDS011;38606;52.986;6.980;2022-10-16T15:40:43;8.40;;;1.92;;
52708;SDS011;38606;52.986;6.980;2022-10-16T15:43:10;6.82;;;1.67;;
52708;SDS011;38606;52.986;6.980;2022-10-16T15:45:36;13.73;;;2.35;;
52708;SDS011;38606;52.986;6.980;2022-10-16T15:48:02;10.40;;;1.70;;
52708;SDS011;38606;52.986;6.980;2022-10-16T15:50:28;11.20;;;1.83;;
52708;SDS011;38606;52.986;6.980;2022-10-16T15:52:55;6.93;;;1.85;;
52708;SDS011;38606;52.986;6.980;2022-10-16T15:55:21;10.80;;;1.70;;
52708;SDS011;38606;52.986;6.980;2022-10-16T15:57:47;8.90;;;1.77;;
52708;SDS011;38606;52.986;6.980;2022-10-16T16:03:26;7.10;;;2.40;;
52708;SDS011;38606;52.986;6.980;2022-10-16T16:06:02;9.82;;;1.60;;
52708;SDS011;38606;52.986;6.980;2022-10-16T16:12:30;10.43;;;1.85;;
52708;SDS011;38606;52.986;6.980;2022-10-16T16:15:06;6.03;;;1.70;;
52708;SDS011;38606;52.986;6.980;2022-10-16T16:17:39;8.48;;;1.77;;
52708;SDS011;38606;52.986;6.980;2022-10-16T16:20:22;8.93;;;1.75;;
52708;SDS011;38606;52.986;6.980;2022-10-16T16:23:01;7.50;;;1.77;;
52708;SDS011;38606;52.986;6.980;2022-10-16T16:25:31;8.85;;;2.33;;
52708;SDS011;38606;52.986;6.980;2022-10-16T16:28:08;8.07;;;1.55;;
52708;SDS011;38606;52.986;6.980;2022-10-16T16:30:46;8.13;;;2.00;;
52708;SDS011;38606;52.986;6.980;2022-10-16T16:33:20;6.50;;;1.70;;
52708;SDS011;38606;52.986;6.980;2022-10-16T16:35:55;6.78;;;1.40;;
52708;SDS011;38606;52.986;6.980;2022-10-16T16:38:25;9.15;;;2.00;;
52708;SDS011;38606;52.986;6.980;2022-10-16T16:40:51;10.77;;;2.00;;
52708;SDS011;38606;52.986;6.980;2022-10-16T16:43:17;9.48;;;2.13;;
52708;SDS011;38606;52.986;6.980;2022-10-16T16:45:43;8.63;;;1.95;;
52708;SDS011;38606;52.986;6.980;2022-10-16T16:48:09;11.90;;;3.05;;
52708;SDS011;38606;52.986;6.980;2022-10-16T16:50:35;9.25;;;2.08;;
52708;SDS011;38606;52.986;6.980;2022-10-16T16:53:01;11.02;;;2.50;;
52708;SDS011;38606;52.986;6.980;2022-10-16T16:55:27;9.02;;;2.63;;
52708;SDS011;38606;52.986;6.980;2022-10-16T16:58:02;9.45;;;2.22;;
52708;SDS011;38606;52.986;6.980;2022-10-16T17:00:29;9.48;;;2.00;;
52708;SDS011;38606;52.986;6.980;2022-10-16T17:02:56;10.13;;;2.13;;
52708;SDS011;38606;52.986;6.980;2022-10-16T17:05:25;11.60;;;1.70;;
52708;SDS011;38606;52.986;6.980;2022-10-16T17:07:55;12.40;;;2.00;;
52708;SDS011;38606;52.986;6.980;2022-10-16T17:10:21;9.52;;;2.70;;